Gore Bay, Canada
Current Conditions -  °F | °C
As of 4:00 PM on Tuesday 27 Jan 2015 (Local Time) from CYZE Reporting Station
Clear Clear  
Wind Chill: 16°   Ceiling: Unl
Heat Index: 16°   Visibility: 9mi
Dew Point: -4°   Wind: 3mph
Humidity: 41%   Direction: 360°N
Pressure: 30.2"   Gusts: NA
Location:  45.92°N, 82.47°W
Report Text: CYZE 272100Z AUTO 36003KT 9SM CLR M09/M20 A3020 RMK SLP243
Loading
Personal Weather Stations






























Interactive Weather Map New forecast layout! Learn more

10-Day Weather Forecast

Advertisements
Track Severe Weather on mobile